Time;durP1;ratioP1;P1;durP2;ratioP2;P2;SDS_P1;SDS_P2;PMS_P1;PMS_P2;Temp;Humidity;BMP_temperature;BMP_pressure;BME280_temperature;BME280_humidity;BME280_pressure;Samples;Min_cycle;Max_cycle;Signal;HPM_P1;HPM_P2
2023/12/23 00:01:38;;;;;;;0.70;0.20;;;9.60;1.00;;;;;;5131219;28;20434;-58
2023/12/23 00:04:04;;;;;;;1.17;0.20;;;9.60;1.00;;;;;;5130044;28;20540;-57
2023/12/23 00:06:31;;;;;;;1.30;0.20;;;9.60;1.00;;;;;;5131082;28;20494;-59
2023/12/23 00:08:58;;;;;;;0.95;0.25;;;9.60;1.00;;;;;;5129431;27;20922;-59
2023/12/23 00:11:25;;;;;;;0.50;0.20;;;9.60;1.00;;;;;;5131973;28;20957;-59
2023/12/23 00:13:52;;;;;;;0.60;0.20;;;9.60;1.00;;;;;;5128800;28;20987;-57
2023/12/23 00:16:24;;;;;;;0.60;0.20;;;9.60;1.00;;;;;;5132106;28;20434;-58
2023/12/23 00:18:51;;;;;;;0.90;0.20;;;9.50;1.00;;;;;;5128290;27;20483;-57
2023/12/23 00:21:18;;;;;;;0.50;0.20;;;9.50;1.00;;;;;;5130483;28;20437;-60
2023/12/23 00:23:45;;;;;;;1.40;0.20;;;9.60;1.00;;;;;;5130281;28;20436;-58
2023/12/23 00:26:12;;;;;;;0.60;0.30;;;9.60;1.00;;;;;;5131720;28;20414;-57
2023/12/23 00:28:39;;;;;;;0.55;0.20;;;9.50;1.00;;;;;;5131280;28;20411;-58
2023/12/23 00:31:06;;;;;;;0.90;0.20;;;9.50;1.00;;;;;;5131121;28;20433;-58
2023/12/23 00:33:35;;;;;;;0.50;0.20;;;9.50;1.00;;;;;;5131846;28;20733;-58
2023/12/23 00:36:02;;;;;;;0.50;0.20;;;9.50;1.00;;;;;;5132876;27;20787;-57
2023/12/23 00:38:29;;;;;;;0.40;0.20;;;9.50;1.00;;;;;;5132846;27;20448;-60
2023/12/23 00:40:56;;;;;;;0.70;0.30;;;9.50;1.00;;;;;;5134695;27;20426;-56
2023/12/23 00:43:23;;;;;;;0.50;0.20;;;9.40;1.00;;;;;;5150771;27;20572;-58
2023/12/23 00:45:51;;;;;;;0.40;0.20;;;9.40;1.00;;;;;;5133684;27;20445;-57
2023/12/23 00:48:19;;;;;;;1.00;0.20;;;9.30;1.00;;;;;;5136639;27;20426;-58
2023/12/23 00:50:47;;;;;;;0.50;0.20;;;9.30;1.00;;;;;;5134825;27;20410;-58
2023/12/23 00:53:15;;;;;;;0.70;0.30;;;9.20;1.00;;;;;;5136376;27;20744;-59
2023/12/23 00:55:42;;;;;;;0.50;0.20;;;9.10;1.00;;;;;;5137274;27;20429;-59
2023/12/23 00:58:09;;;;;;;0.32;0.20;;;9.10;1.00;;;;;;5136670;27;20441;-57
2023/12/23 01:00:37;;;;;;;0.50;0.20;;;9.10;1.00;;;;;;5135535;27;20426;-59
2023/12/23 01:03:05;;;;;;;1.20;0.20;;;9.10;1.00;;;;;;5133519;27;20415;-57
2023/12/23 01:05:32;;;;;;;0.40;0.20;;;9.10;1.00;;;;;;5135407;27;20509;-58
2023/12/23 01:08:01;;;;;;;0.70;0.20;;;9.20;1.00;;;;;;5136038;27;20865;-57
2023/12/23 01:10:28;;;;;;;0.60;0.20;;;9.20;1.00;;;;;;5135695;27;20415;-58
2023/12/23 01:12:55;;;;;;;0.50;0.20;;;9.10;1.00;;;;;;5136844;27;20425;-57
2023/12/23 01:15:22;;;;;;;0.80;0.20;;;9.20;1.00;;;;;;5136568;27;20429;-57
2023/12/23 01:17:49;;;;;;;0.80;0.20;;;9.20;1.00;;;;;;5136892;27;20411;-57
2023/12/23 01:20:16;;;;;;;1.00;0.20;;;9.20;1.00;;;;;;5136416;27;20415;-57
2023/12/23 01:22:43;;;;;;;0.50;0.20;;;9.30;1.00;;;;;;5135690;27;20426;-59
2023/12/23 01:25:12;;;;;;;0.50;0.20;;;9.30;1.00;;;;;;5135427;27;21004;-58
2023/12/23 01:27:39;;;;;;;1.20;0.20;;;9.20;1.00;;;;;;5135796;27;20841;-58
2023/12/23 01:30:07;;;;;;;0.80;0.10;;;9.10;1.00;;;;;;5135379;27;20833;-58
2023/12/23 01:32:34;;;;;;;0.70;0.20;;;9.20;1.00;;;;;;5135553;27;20403;-59
2023/12/23 01:35:01;;;;;;;0.50;0.20;;;9.10;1.00;;;;;;5136019;27;20419;-59
2023/12/23 01:37:29;;;;;;;0.47;0.10;;;9.10;1.00;;;;;;5136786;27;20414;-59
2023/12/23 01:39:56;;;;;;;0.30;0.13;;;9.00;3.00;;;;;;5137262;27;20418;-59
2023/12/23 01:42:24;;;;;;;0.50;0.20;;;9.00;1.00;;;;;;5136555;27;20725;-59
2023/12/23 01:44:51;;;;;;;0.43;0.20;;;9.00;12.30;;;;;;5135609;27;20413;-60
2023/12/23 01:47:19;;;;;;;0.45;0.20;;;8.90;18.30;;;;;;5136231;27;20425;-58
2023/12/23 01:49:46;;;;;;;0.50;0.10;;;8.80;7.30;;;;;;5135957;27;20793;-58
2023/12/23 01:52:13;;;;;;;2.20;0.20;;;8.90;19.50;;;;;;5136612;27;20706;-58
2023/12/23 01:54:41;;;;;;;0.85;0.20;;;8.90;1.60;;;;;;5136239;27;20472;-58
2023/12/23 01:57:08;;;;;;;1.10;0.20;;;9.00;1.00;;;;;;5136852;27;21152;-59
2023/12/23 01:59:37;;;;;;;0.43;0.20;;;9.10;1.00;;;;;;5135513;27;20882;-58
2023/12/23 02:02:06;;;;;;;0.70;0.20;;;9.00;1.00;;;;;;5136290;27;20431;-58
2023/12/23 02:04:34;;;;;;;1.20;0.20;;;9.10;1.00;;;;;;5136356;27;20441;-57
2023/12/23 02:07:01;;;;;;;0.90;0.30;;;9.10;1.00;;;;;;5135768;27;20442;-58
2023/12/23 02:09:28;;;;;;;0.80;0.30;;;9.10;1.00;;;;;;5134589;27;20418;-58
2023/12/23 02:12:10;;;;;;;0.50;0.20;;;9.10;1.00;;;;;;5133803;27;20417;-57
2023/12/23 02:14:43;;;;;;;1.10;0.20;;;9.10;1.00;;;;;;5133357;27;20421;-60
2023/12/23 02:17:11;;;;;;;0.70;0.20;;;9.10;1.00;;;;;;5133716;27;20862;-58
2023/12/23 02:19:38;;;;;;;0.90;0.20;;;9.00;1.00;;;;;;5134389;27;20467;-56
2023/12/23 02:22:06;;;;;;;0.80;0.30;;;9.00;1.00;;;;;;5132632;27;20426;-59
2023/12/23 02:24:33;;;;;;;1.00;0.30;;;9.10;1.00;;;;;;5135167;27;20729;-60
2023/12/23 02:27:06;;;;;;;1.50;0.20;;;9.00;1.00;;;;;;5134205;27;20411;-59
2023/12/23 02:29:34;;;;;;;0.47;0.20;;;9.10;1.00;;;;;;5134893;27;20410;-60
2023/12/23 02:32:02;;;;;;;0.52;0.20;;;9.10;1.00;;;;;;5135442;27;20423;-58
2023/12/23 02:34:30;;;;;;;1.17;0.30;;;9.10;1.00;;;;;;5135531;27;20529;-59
2023/12/23 02:36:57;;;;;;;1.00;0.20;;;9.00;1.00;;;;;;5134222;27;20721;-59
2023/12/23 02:39:26;;;;;;;0.60;0.20;;;8.90;1.00;;;;;;5134454;27;20430;-58
2023/12/23 02:41:53;;;;;;;1.00;0.20;;;8.90;1.00;;;;;;5133909;27;20426;-59
2023/12/23 02:44:19;;;;;;;0.50;0.20;;;9.00;5.80;;;;;;5134541;27;20863;-58
2023/12/23 02:46:46;;;;;;;1.00;0.20;;;9.00;4.40;;;;;;5135295;27;20869;-58
2023/12/23 02:49:13;;;;;;;0.60;0.20;;;8.90;1.00;;;;;;5135348;27;20422;-58
2023/12/23 02:51:40;;;;;;;1.60;0.20;;;8.90;1.00;;;;;;5134327;27;20908;-59
2023/12/23 02:54:07;;;;;;;1.10;0.20;;;9.00;1.00;;;;;;5133738;27;20509;-57
2023/12/23 02:56:38;;;;;;;0.50;0.20;;;9.00;1.00;;;;;;5134217;27;20421;-59
2023/12/23 02:59:05;;;;;;;1.25;0.25;;;9.00;1.00;;;;;;5130186;27;20427;-58
2023/12/23 03:01:32;;;;;;;0.60;0.30;;;9.00;1.00;;;;;;5133287;27;20466;-59
2023/12/23 03:03:59;;;;;;;0.50;0.20;;;9.10;1.00;;;;;;5134517;27;20423;-58
2023/12/23 03:06:26;;;;;;;0.50;0.20;;;9.10;1.00;;;;;;5133176;27;20745;-58
2023/12/23 03:08:53;;;;;;;0.50;0.20;;;9.10;1.00;;;;;;5132626;27;20410;-58
2023/12/23 03:11:20;;;;;;;0.40;0.20;;;9.10;1.00;;;;;;5133553;27;20411;-59
2023/12/23 03:13:49;;;;;;;0.47;0.20;;;9.10;1.00;;;;;;5132297;27;20414;-59
2023/12/23 03:16:16;;;;;;;1.00;0.20;;;9.20;1.00;;;;;;5132445;27;20418;-58
2023/12/23 03:18:43;;;;;;;0.80;0.20;;;9.10;1.00;;;;;;5133481;27;21036;-58
2023/12/23 03:21:10;;;;;;;0.73;0.20;;;9.10;1.00;;;;;;5133786;27;20431;-59
2023/12/23 03:23:38;;;;;;;0.35;0.20;;;9.00;1.00;;;;;;5133168;27;20411;-58
2023/12/23 03:26:05;;;;;;;1.67;0.22;;;9.10;1.00;;;;;;5133339;27;20425;-58
2023/12/23 03:28:32;;;;;;;2.40;0.20;;;9.10;1.00;;;;;;5134183;27;20467;-58
2023/12/23 03:31:00;;;;;;;0.40;0.20;;;9.10;1.00;;;;;;5133193;27;20419;-58
2023/12/23 03:33:28;;;;;;;0.60;0.20;;;9.10;1.00;;;;;;5133858;27;20456;-58
2023/12/23 03:35:58;;;;;;;1.00;0.20;;;9.10;1.00;;;;;;5134100;27;20410;-58
2023/12/23 03:38:25;;;;;;;1.02;0.20;;;9.10;1.00;;;;;;5134202;27;20417;-57
2023/12/23 03:40:52;;;;;;;0.60;0.20;;;9.10;1.00;;;;;;5134262;27;20499;-56
2023/12/23 03:43:19;;;;;;;1.40;0.20;;;9.10;1.00;;;;;;5134789;27;20441;-58
2023/12/23 03:45:46;;;;;;;1.20;0.30;;;9.10;1.00;;;;;;5134123;27;21033;-58
2023/12/23 03:48:15;;;;;;;0.70;0.30;;;9.10;1.00;;;;;;5134068;27;20426;-57
2023/12/23 03:50:42;;;;;;;0.50;0.20;;;9.10;1.00;;;;;;5114346;28;20424;-58
2023/12/23 03:53:09;;;;;;;1.05;0.30;;;9.20;1.00;;;;;;5114023;28;20420;-58
2023/12/23 03:55:38;;;;;;;0.70;0.20;;;9.20;1.00;;;;;;5113648;28;20420;-58
2023/12/23 03:58:05;;;;;;;0.47;0.20;;;9.30;1.00;;;;;;5117142;27;20431;-57
2023/12/23 04:00:33;;;;;;;0.50;0.20;;;9.20;1.00;;;;;;5134032;27;20419;-57
2023/12/23 04:03:00;;;;;;;0.47;0.20;;;9.20;1.00;;;;;;5134048;28;20744;-57
2023/12/23 04:05:28;;;;;;;0.50;0.20;;;9.20;1.00;;;;;;5133713;28;20417;-58
2023/12/23 04:07:55;;;;;;;0.60;0.30;;;9.20;1.00;;;;;;5133353;28;20508;-58
2023/12/23 04:10:22;;;;;;;1.30;0.20;;;9.20;1.00;;;;;;5135106;27;20418;-58
2023/12/23 04:12:51;;;;;;;0.40;0.20;;;9.20;1.00;;;;;;5138358;27;20789;-59
2023/12/23 04:15:18;;;;;;;0.50;0.20;;;9.10;1.00;;;;;;5138204;27;20426;-58
2023/12/23 04:17:45;;;;;;;0.43;0.10;;;9.10;1.00;;;;;;5138321;27;20406;-58
2023/12/23 04:20:12;;;;;;;0.40;0.20;;;9.10;1.00;;;;;;5137753;27;20422;-55
2023/12/23 04:22:44;;;;;;;0.80;0.20;;;9.10;1.00;;;;;;5137893;27;20444;-56
2023/12/23 04:25:11;;;;;;;1.10;0.20;;;9.00;1.00;;;;;;5137792;27;20491;-57
2023/12/23 04:27:38;;;;;;;1.00;0.20;;;9.10;1.00;;;;;;5137691;27;20414;-57
2023/12/23 04:30:07;;;;;;;0.70;0.20;;;9.00;1.00;;;;;;5138904;27;20419;-56
2023/12/23 04:32:34;;;;;;;0.60;0.30;;;9.00;1.00;;;;;;5137382;27;20445;-57
2023/12/23 04:35:01;;;;;;;0.50;0.20;;;9.10;1.00;;;;;;5137958;27;20486;-57
2023/12/23 04:37:28;;;;;;;0.63;0.20;;;9.10;1.00;;;;;;5138450;27;20767;-57
2023/12/23 04:39:57;;;;;;;0.47;0.20;;;9.10;1.00;;;;;;5139344;27;20812;-57
2023/12/23 04:42:24;;;;;;;0.90;0.20;;;9.10;1.00;;;;;;5138019;27;20433;-57
2023/12/23 04:44:51;;;;;;;0.80;0.20;;;9.00;1.00;;;;;;5138067;27;20406;-56
2023/12/23 04:47:18;;;;;;;0.80;0.20;;;9.10;1.00;;;;;;5137394;27;20410;-57
2023/12/23 04:49:45;;;;;;;0.40;0.20;;;9.10;1.00;;;;;;5118434;27;20836;-57
2023/12/23 04:52:13;;;;;;;1.10;0.17;;;9.10;1.00;;;;;;5134039;27;20414;-57
2023/12/23 04:54:40;;;;;;;0.70;0.20;;;9.20;99.90;;;;;;5136074;27;20741;-53
2023/12/23 04:57:08;;;;;;;0.50;0.20;;;9.10;99.90;;;;;;5134510;27;20425;-57
2023/12/23 04:59:35;;;;;;;1.50;0.20;;;9.10;99.90;;;;;;5133483;27;20430;-57
2023/12/23 05:02:05;;;;;;;0.60;0.20;;;9.10;99.90;;;;;;5136292;27;20444;-57
2023/12/23 05:04:32;;;;;;;0.90;0.20;;;9.10;1.00;;;;;;5135188;27;20846;-58
2023/12/23 05:06:59;;;;;;;0.60;0.10;;;9.20;1.00;;;;;;5117946;27;20416;-58
2023/12/23 05:09:26;;;;;;;0.40;0.10;;;9.20;1.00;;;;;;5136859;27;21024;-58
2023/12/23 05:11:53;;;;;;;1.52;0.20;;;9.20;5.40;;;;;;5135684;27;21013;-58
2023/12/23 05:14:22;;;;;;;0.30;0.10;;;9.20;1.00;;;;;;5121776;27;20411;-58
2023/12/23 05:16:49;;;;;;;0.60;0.10;;;9.20;1.00;;;;;;5132270;27;20754;-58
2023/12/23 05:19:16;;;;;;;0.40;0.20;;;9.30;1.00;;;;;;5127936;27;20424;-56
2023/12/23 05:21:46;;;;;;;0.40;0.10;;;9.20;1.00;;;;;;5129621;27;20457;-55
2023/12/23 05:24:13;;;;;;;0.30;0.10;;;9.20;34.60;;;;;;5124613;27;20418;-56
2023/12/23 05:26:40;;;;;;;0.55;0.10;;;9.20;16.30;;;;;;5114673;28;20507;-59
2023/12/23 05:29:07;;;;;;;1.10;0.20;;;9.30;1.00;;;;;;5119394;27;20750;-58
2023/12/23 05:31:36;;;;;;;1.20;0.10;;;9.30;99.90;;;;;;5132769;27;20434;-58
2023/12/23 05:34:03;;;;;;;1.00;0.13;;;9.20;99.90;;;;;;5127802;27;20825;-58
2023/12/23 05:36:30;;;;;;;0.30;0.10;;;9.20;99.90;;;;;;5117955;27;20438;-58
2023/12/23 05:38:57;;;;;;;0.50;0.10;;;9.20;99.90;;;;;;5116788;27;20444;-56
2023/12/23 05:41:24;;;;;;;0.30;0.10;;;9.20;99.90;;;;;;5135787;27;20415;-58
2023/12/23 05:43:52;;;;;;;0.30;0.10;;;9.20;99.90;;;;;;5131548;27;20439;-58
2023/12/23 05:46:19;;;;;;;0.30;0.10;;;9.20;1.00;;;;;;5135100;27;20456;-58
2023/12/23 05:48:47;;;;;;;0.47;0.10;;;9.20;99.90;;;;;;5147706;27;20483;-58
2023/12/23 05:51:15;;;;;;;0.47;0.10;;;9.30;1.00;;;;;;5136299;27;20832;-58
2023/12/23 05:53:42;;;;;;;0.40;0.10;;;9.20;1.00;;;;;;5131677;27;20841;-57
2023/12/23 05:56:09;;;;;;;0.30;0.10;;;9.10;1.00;;;;;;5130348;27;20744;-56
2023/12/23 05:58:37;;;;;;;1.40;0.47;;;9.10;1.00;;;;;;5124962;27;20444;-61
2023/12/23 06:01:06;;;;;;;0.60;0.10;;;9.00;1.00;;;;;;5139814;27;20418;-58
2023/12/23 06:03:33;;;;;;;0.40;0.20;;;9.00;1.00;;;;;;5134371;27;20504;-57
2023/12/23 06:06:03;;;;;;;0.30;0.10;;;9.00;1.00;;;;;;5133846;27;21070;-58
2023/12/23 06:08:31;;;;;;;0.30;0.10;;;9.00;1.00;;;;;;5134840;27;20755;-59
2023/12/23 06:10:58;;;;;;;0.40;0.10;;;8.90;1.00;;;;;;5137040;27;20418;-57
2023/12/23 06:13:25;;;;;;;0.30;0.10;;;8.90;1.00;;;;;;5151868;27;20420;-57
2023/12/23 06:15:52;;;;;;;0.30;0.10;;;8.90;1.00;;;;;;5156417;27;20847;-57
2023/12/23 06:18:19;;;;;;;0.30;0.10;;;8.80;1.00;;;;;;5135600;27;20433;-57
2023/12/23 06:20:46;;;;;;;0.40;0.10;;;8.80;1.00;;;;;;5134252;27;20437;-59
2023/12/23 06:23:15;;;;;;;0.40;0.10;;;8.80;1.00;;;;;;5135786;27;20426;-57
2023/12/23 06:25:42;;;;;;;0.32;0.10;;;8.80;1.00;;;;;;5131840;27;20434;-57
2023/12/23 06:28:09;;;;;;;0.50;0.10;;;8.80;1.00;;;;;;5135798;27;20425;-57
2023/12/23 06:30:36;;;;;;;0.30;0.10;;;8.70;1.00;;;;;;5134393;27;20841;-57
2023/12/23 06:33:03;;;;;;;0.30;0.10;;;8.60;1.00;;;;;;5114268;28;20486;-57
2023/12/23 06:35:31;;;;;;;0.30;0.10;;;8.60;1.00;;;;;;5120621;27;20463;-58
2023/12/23 06:37:58;;;;;;;0.30;0.10;;;8.60;1.00;;;;;;5134947;27;20433;-57
2023/12/23 06:40:28;;;;;;;0.30;0.10;;;8.60;1.00;;;;;;5133543;27;20442;-58
2023/12/23 06:42:55;;;;;;;0.30;0.10;;;8.70;1.00;;;;;;5135349;27;20827;-55
2023/12/23 06:45:22;;;;;;;0.30;0.10;;;8.70;1.00;;;;;;5134762;27;20565;-56
2023/12/23 06:47:49;;;;;;;0.30;0.10;;;8.70;1.00;;;;;;5134574;27;20414;-55
2023/12/23 06:50:16;;;;;;;0.30;0.10;;;8.70;1.00;;;;;;5135175;27;20421;-56
2023/12/23 06:52:43;;;;;;;0.35;0.10;;;8.80;1.00;;;;;;5134911;27;20415;-57
2023/12/23 06:55:11;;;;;;;0.30;0.10;;;8.80;1.00;;;;;;5135067;27;20418;-57
2023/12/23 06:57:40;;;;;;;0.70;0.10;;;8.70;1.00;;;;;;5131788;27;20533;-58
2023/12/23 07:00:09;;;;;;;0.30;0.10;;;8.70;1.00;;;;;;5133821;27;20438;-57
2023/12/23 07:02:36;;;;;;;0.80;0.10;;;8.70;1.00;;;;;;5134743;27;20907;-57
2023/12/23 07:05:04;;;;;;;0.30;0.10;;;8.70;1.00;;;;;;5133449;27;20945;-57
2023/12/23 07:07:31;;;;;;;0.70;0.10;;;8.70;1.00;;;;;;5134166;27;20422;-57
2023/12/23 07:09:59;;;;;;;0.30;0.10;;;8.80;1.00;;;;;;5128489;27;20446;-58
2023/12/23 07:12:26;;;;;;;0.30;0.10;;;8.80;1.00;;;;;;5124075;27;20514;-58
2023/12/23 07:14:55;;;;;;;0.30;0.10;;;8.80;1.00;;;;;;5127176;27;20440;-57
2023/12/23 07:17:22;;;;;;;0.40;0.10;;;8.80;1.00;;;;;;5126278;27;20439;-56
2023/12/23 07:19:49;;;;;;;0.30;0.10;;;8.70;1.00;;;;;;5129371;27;20423;-58
2023/12/23 07:22:21;;;;;;;0.30;0.10;;;8.70;1.00;;;;;;5127190;27;20504;-58
2023/12/23 07:24:48;;;;;;;0.70;0.10;;;8.80;1.00;;;;;;5121938;27;20433;-58
2023/12/23 07:27:15;;;;;;;0.30;0.10;;;8.70;1.00;;;;;;5127687;27;20456;-58
2023/12/23 07:29:43;;;;;;;0.30;0.10;;;8.80;1.00;;;;;;5127733;27;20982;-58
2023/12/23 07:32:11;;;;;;;0.30;0.10;;;8.70;1.00;;;;;;5131209;27;20438;-58
2023/12/23 07:34:38;;;;;;;0.30;0.10;;;8.80;1.00;;;;;;5127976;27;20470;-59
2023/12/23 07:37:05;;;;;;;0.30;0.10;;;8.80;1.00;;;;;;5125041;27;20437;-58
2023/12/23 07:39:32;;;;;;;0.30;0.10;;;8.70;1.00;;;;;;5129401;27;20458;-58
2023/12/23 07:42:00;;;;;;;0.30;0.10;;;8.70;1.00;;;;;;5127900;27;20421;-58
2023/12/23 07:44:27;;;;;;;0.30;0.10;;;8.70;1.00;;;;;;5130454;27;20424;-58
2023/12/23 07:46:54;;;;;;;0.30;0.10;;;8.90;1.00;;;;;;5132712;27;20433;-58
2023/12/23 07:49:23;;;;;;;0.30;0.10;;;8.90;1.00;;;;;;5129743;27;20434;-57
2023/12/23 07:51:50;;;;;;;0.60;0.10;;;8.90;1.00;;;;;;5127987;27;20439;-58
2023/12/23 07:54:17;;;;;;;0.30;0.10;;;8.90;1.00;;;;;;5132790;27;20417;-58
2023/12/23 07:56:44;;;;;;;0.30;0.10;;;9.00;1.00;;;;;;5131462;27;20418;-59
2023/12/23 07:59:11;;;;;;;0.30;0.10;;;9.00;1.00;;;;;;5129383;27;20418;-57
2023/12/23 08:01:44;;;;;;;0.90;0.10;;;9.00;1.00;;;;;;5130722;27;20422;-58
2023/12/23 08:04:12;;;;;;;0.30;0.10;;;9.10;1.00;;;;;;5129585;27;20469;-57
2023/12/23 08:06:40;;;;;;;0.60;0.10;;;9.10;1.00;;;;;;5131976;27;20731;-57
2023/12/23 08:09:08;;;;;;;0.40;0.10;;;9.10;1.00;;;;;;5127651;27;20744;-57
2023/12/23 08:11:35;;;;;;;0.40;0.10;;;9.10;1.00;;;;;;5132145;28;20422;-57
2023/12/23 08:14:03;;;;;;;0.30;0.10;;;9.00;1.00;;;;;;5133289;28;20418;-55
2023/12/23 08:16:30;;;;;;;0.30;0.10;;;9.00;1.00;;;;;;5130558;28;20407;-57
2023/12/23 08:18:57;;;;;;;0.30;0.10;;;9.10;1.00;;;;;;5130444;28;20837;-56
2023/12/23 08:21:24;;;;;;;0.30;0.10;;;9.10;1.00;;;;;;5132880;28;20422;-56
2023/12/23 08:23:53;;;;;;;0.30;0.10;;;9.10;1.00;;;;;;5128041;28;20435;-56
2023/12/23 08:26:20;;;;;;;0.30;0.10;;;9.10;1.00;;;;;;5132871;28;20426;-54
2023/12/23 08:28:47;;;;;;;0.40;0.10;;;9.10;1.00;;;;;;5131541;28;20434;-55
2023/12/23 08:31:14;;;;;;;0.30;0.10;;;9.30;1.00;;;;;;5126682;27;21084;-58
2023/12/23 08:33:41;;;;;;;0.40;0.10;;;9.60;1.00;;;;;;5129681;27;20428;-58
2023/12/23 08:36:09;;;;;;;0.33;0.10;;;9.40;1.00;;;;;;5132783;27;20440;-58
2023/12/23 08:38:36;;;;;;;0.30;0.10;;;9.40;1.00;;;;;;5128150;27;20437;-58
2023/12/23 08:41:04;;;;;;;0.30;0.10;;;9.40;1.00;;;;;;5131300;27;20748;-58
2023/12/23 08:43:32;;;;;;;0.30;0.10;;;9.50;1.00;;;;;;5129485;27;20888;-57
2023/12/23 08:46:00;;;;;;;0.40;0.10;;;9.60;99.90;;;;;;5128234;27;20430;-58
2023/12/23 08:48:27;;;;;;;0.30;0.10;;;9.60;99.90;;;;;;5127694;27;20876;-57
2023/12/23 08:50:55;;;;;;;0.30;0.10;;;9.60;22.30;;;;;;5126474;27;20552;-57
2023/12/23 08:53:22;;;;;;;0.30;0.10;;;9.60;99.90;;;;;;5130458;27;20437;-57
2023/12/23 08:55:49;;;;;;;0.37;0.10;;;9.60;99.90;;;;;;5127672;27;20437;-58
2023/12/23 08:58:18;;;;;;;0.30;0.10;;;9.70;99.90;;;;;;5129164;27;20426;-57
2023/12/23 09:00:45;;;;;;;0.60;0.10;;;9.60;99.90;;;;;;5131067;27;20414;-57
2023/12/23 09:03:12;;;;;;;0.30;0.10;;;9.60;99.90;;;;;;5130162;27;20426;-58
2023/12/23 09:05:39;;;;;;;0.30;0.10;;;9.50;3.30;;;;;;5121977;27;20533;-57
2023/12/23 09:08:07;;;;;;;0.30;0.10;;;9.50;1.00;;;;;;5131277;27;20430;-58
2023/12/23 09:10:34;;;;;;;0.30;0.10;;;9.50;99.90;;;;;;5133393;27;20431;-57
2023/12/23 09:13:02;;;;;;;0.30;0.10;;;9.40;1.00;;;;;;5133566;27;20426;-58
2023/12/23 09:15:31;;;;;;;0.30;0.10;;;9.50;86.00;;;;;;5127860;27;21054;-58
2023/12/23 09:17:58;;;;;;;0.30;0.10;;;9.60;99.90;;;;;;5127930;27;21070;-59
2023/12/23 09:20:25;;;;;;;0.30;0.10;;;9.70;1.00;;;;;;5129808;27;20434;-59
2023/12/23 09:22:52;;;;;;;0.30;0.10;;;9.80;1.00;;;;;;5129987;27;20431;-59
2023/12/23 09:25:27;;;;;;;0.30;0.10;;;9.80;99.90;;;;;;5126786;27;20434;-59
2023/12/23 09:27:54;;;;;;;0.40;0.10;;;9.80;1.00;;;;;;5131037;27;20525;-59
2023/12/23 09:30:21;;;;;;;0.32;0.10;;;9.80;1.00;;;;;;5127791;27;20745;-59
2023/12/23 09:32:51;;;;;;;0.30;0.10;;;10.00;32.90;;;;;;5130646;27;20453;-57
2023/12/23 09:35:18;;;;;;;0.60;0.10;;;10.10;1.00;;;;;;5131093;27;20541;-58
2023/12/23 09:37:45;;;;;;;0.30;0.10;;;9.90;99.90;;;;;;5132361;27;20430;-58
2023/12/23 09:40:14;;;;;;;4.40;1.60;;;9.90;1.00;;;;;;5132233;27;20438;-61
2023/12/23 09:42:41;;;;;;;1.40;0.20;;;10.20;1.00;;;;;;5132092;27;20422;-60
2023/12/23 09:45:10;;;;;;;0.30;0.10;;;10.00;1.00;;;;;;5123897;27;20438;-60
2023/12/23 09:47:37;;;;;;;0.30;0.10;;;10.00;99.90;;;;;;5124730;27;20763;-59
2023/12/23 09:50:06;;;;;;;0.30;0.10;;;10.00;99.90;;;;;;5128707;27;20426;-60
2023/12/23 09:52:33;;;;;;;0.30;0.10;;;10.00;99.90;;;;;;5130013;27;20430;-60
2023/12/23 09:55:03;;;;;;;0.30;0.10;;;10.00;42.20;;;;;;5130347;27;20430;-59
2023/12/23 09:57:31;;;;;;;0.30;0.10;;;10.10;99.90;;;;;;5133342;27;20803;-60
2023/12/23 09:59:59;;;;;;;0.30;0.10;;;10.10;99.90;;;;;;5133413;27;20434;-59
2023/12/23 10:02:26;;;;;;;0.30;0.10;;;10.20;99.90;;;;;;5131031;27;20438;-60
2023/12/23 10:04:53;;;;;;;0.30;0.10;;;10.30;1.00;;;;;;5134246;27;20523;-60
2023/12/23 10:07:22;;;;;;;0.30;0.10;;;10.10;32.00;;;;;;5132774;27;20875;-59
2023/12/23 10:09:50;;;;;;;0.30;0.10;;;10.20;1.00;;;;;;5132843;27;20430;-59
2023/12/23 10:12:17;;;;;;;0.30;0.10;;;10.10;1.00;;;;;;5135941;27;20562;-60
2023/12/23 10:14:46;;;;;;;0.30;0.10;;;9.90;1.00;;;;;;5130796;27;20426;-60
2023/12/23 10:17:14;;;;;;;0.60;0.10;;;10.00;1.00;;;;;;5127279;27;20466;-60
2023/12/23 10:19:41;;;;;;;0.30;0.10;;;10.00;1.00;;;;;;5134469;27;20418;-58
2023/12/23 10:22:08;;;;;;;0.38;0.10;;;10.00;1.00;;;;;;5121187;27;20432;-59
2023/12/23 10:24:38;;;;;;;0.30;0.10;;;10.20;35.90;;;;;;5116686;27;20876;-60
2023/12/23 10:27:06;;;;;;;0.30;0.10;;;10.00;35.30;;;;;;5130655;27;20434;-58
2023/12/23 10:29:34;;;;;;;0.30;0.10;;;9.80;1.00;;;;;;5131532;27;20765;-57
2023/12/23 10:32:04;;;;;;;0.30;0.10;;;10.00;1.00;;;;;;5127596;27;20495;-59
2023/12/23 10:34:43;;;;;;;0.30;0.10;;;10.00;99.90;;;;;;5125527;27;20430;-58
2023/12/23 10:37:10;;;;;;;0.30;0.10;;;10.00;1.00;;;;;;5130189;27;20593;-60
2023/12/23 10:39:47;;;;;;;0.30;0.10;;;10.00;1.00;;;;;;5124733;27;20433;-58
2023/12/23 10:42:20;;;;;;;0.30;0.10;;;10.10;1.00;;;;;;5125450;27;20981;-58
2023/12/23 10:44:49;;;;;;;0.30;0.10;;;10.20;1.00;;;;;;5129359;27;20454;-58
2023/12/23 10:47:16;;;;;;;0.30;0.10;;;10.20;1.00;;;;;;5129996;27;21050;-58
2023/12/23 10:49:46;;;;;;;0.30;0.10;;;10.10;99.90;;;;;;5133080;27;20435;-58
2023/12/23 10:52:15;;;;;;;0.30;0.10;;;10.00;99.90;;;;;;5137926;27;20890;-60
2023/12/23 10:54:44;;;;;;;0.30;0.10;;;10.00;1.00;;;;;;5128950;27;20426;-60
2023/12/23 10:57:12;;;;;;;0.30;0.10;;;10.00;1.00;;;;;;5119306;27;20440;-59
2023/12/23 10:59:40;;;;;;;0.30;0.10;;;10.10;1.00;;;;;;5122467;27;20434;-59
2023/12/23 11:02:13;;;;;;;0.30;0.10;;;10.20;1.00;;;;;;5124058;27;20504;-59
2023/12/23 11:04:44;;;;;;;0.30;0.10;;;10.10;1.00;;;;;;5132637;27;20490;-59
2023/12/23 11:07:14;;;;;;;0.30;0.10;;;10.30;1.00;;;;;;5132553;27;20520;-59
2023/12/23 11:09:46;;;;;;;0.50;0.10;;;10.10;1.00;;;;;;5129928;27;20419;-59
2023/12/23 11:12:13;;;;;;;0.30;0.10;;;10.10;1.00;;;;;;5132158;27;20437;-58
2023/12/23 11:14:41;;;;;;;0.30;0.10;;;10.00;1.00;;;;;;5129890;27;20517;-59
2023/12/23 11:17:23;;;;;;;0.30;0.10;;;10.10;1.00;;;;;;5129648;27;20445;-59
2023/12/23 11:19:50;;;;;;;0.30;0.10;;;10.00;99.90;;;;;;5133738;27;20491;-59
2023/12/23 11:22:28;;;;;;;0.30;0.10;;;10.00;28.00;;;;;;5130623;27;20441;-59
2023/12/23 11:24:56;;;;;;;0.30;0.10;;;10.10;99.90;;;;;;5129458;27;20429;-59
2023/12/23 11:27:31;;;;;;;0.30;0.10;;;10.10;1.00;;;;;;5130154;27;20453;-59
2023/12/23 11:30:03;;;;;;;0.30;0.10;;;10.10;1.00;;;;;;5115975;27;20436;-59
2023/12/23 11:32:36;;;;;;;0.30;0.10;;;10.20;99.90;;;;;;5122100;27;20640;-60
2023/12/23 11:35:05;;;;;;;0.30;0.10;;;10.10;1.00;;;;;;5131636;27;20500;-59
2023/12/23 11:37:55;;;;;;;0.30;0.10;;;10.20;1.00;;;;;;5132418;27;20483;-60
2023/12/23 11:40:25;;;;;;;0.30;0.10;;;10.20;1.00;;;;;;5127964;27;20466;-59
2023/12/23 11:42:52;;;;;;;1.23;0.10;;;10.10;1.00;;;;;;5132681;27;20643;-59
2023/12/23 11:45:19;;;;;;;0.30;0.10;;;10.00;82.80;;;;;;5128405;27;20433;-59
2023/12/23 11:47:47;;;;;;;0.30;0.10;;;10.10;1.00;;;;;;5115957;27;20443;-59
2023/12/23 11:50:14;;;;;;;0.30;0.10;;;10.20;1.00;;;;;;5128812;27;20719;-57
2023/12/23 11:52:42;;;;;;;0.30;0.10;;;10.10;99.90;;;;;;5133524;27;20818;-58
2023/12/23 11:55:10;;;;;;;0.30;0.10;;;10.20;99.90;;;;;;5133560;27;20729;-57
2023/12/23 11:57:39;;;;;;;0.30;0.10;;;10.20;99.90;;;;;;5133763;27;20410;-58
2023/12/23 12:00:08;;;;;;;0.40;0.10;;;10.20;40.90;;;;;;5130585;27;20428;-59
2023/12/23 12:02:35;;;;;;;0.30;0.10;;;10.20;99.90;;;;;;5129546;27;20483;-57
2023/12/23 12:05:02;;;;;;;0.30;0.10;;;10.30;99.90;;;;;;5128147;27;20430;-58
2023/12/23 12:07:30;;;;;;;0.30;0.10;;;10.20;1.00;;;;;;5133103;27;20436;-56
2023/12/23 12:09:57;;;;;;;0.30;0.10;;;10.40;99.90;;;;;;5125221;28;20870;-58
2023/12/23 12:12:24;;;;;;;0.30;0.10;;;10.40;1.00;;;;;;5133574;28;20414;-58
2023/12/23 12:14:53;;;;;;;0.30;0.10;;;10.40;99.90;;;;;;5127960;28;20427;-58
2023/12/23 12:17:20;;;;;;;0.60;0.10;;;10.20;19.90;;;;;;5128781;28;20741;-59
2023/12/23 12:19:47;;;;;;;0.40;0.10;;;10.20;15.70;;;;;;5120709;27;20436;-59
2023/12/23 12:22:14;;;;;;;0.30;0.10;;;10.20;1.00;;;;;;5129936;27;20434;-59
2023/12/23 12:24:42;;;;;;;0.30;0.10;;;10.10;1.00;;;;;;5126558;28;20446;-58
2023/12/23 12:27:10;;;;;;;0.30;0.10;;;10.20;99.90;;;;;;5130869;28;21030;-58
2023/12/23 12:29:37;;;;;;;0.30;0.10;;;10.20;1.00;;;;;;5128539;28;20877;-59
2023/12/23 12:32:11;;;;;;;0.30;0.10;;;10.30;1.00;;;;;;5132698;27;20821;-59
2023/12/23 12:34:38;;;;;;;0.80;0.10;;;10.30;1.00;;;;;;5133643;27;20430;-59
2023/12/23 12:37:05;;;;;;;0.30;0.10;;;10.30;99.90;;;;;;5134213;27;20436;-58
2023/12/23 12:39:32;;;;;;;0.30;0.10;;;10.40;1.00;;;;;;5121971;27;20439;-58
2023/12/23 12:41:59;;;;;;;0.30;0.10;;;10.30;17.40;;;;;;5131197;27;20926;-59
2023/12/23 12:44:27;;;;;;;0.30;0.10;;;10.30;1.00;;;;;;5134987;27;20431;-58
2023/12/23 12:46:55;;;;;;;0.30;0.10;;;10.50;8.90;;;;;;5136539;27;20497;-58
2023/12/23 12:49:25;;;;;;;0.40;0.10;;;10.50;1.00;;;;;;5135070;27;20829;-59
2023/12/23 12:51:52;;;;;;;0.30;0.10;;;10.60;1.00;;;;;;5137650;27;20425;-59
2023/12/23 12:54:23;;;;;;;0.30;0.10;;;10.60;1.00;;;;;;5134933;27;20417;-58
2023/12/23 12:56:50;;;;;;;0.30;0.10;;;10.70;99.90;;;;;;5135211;27;20486;-60
2023/12/23 12:59:17;;;;;;;0.30;0.10;;;10.70;1.00;;;;;;5128760;27;20432;-59
2023/12/23 13:01:45;;;;;;;0.40;0.10;;;10.70;21.30;;;;;;5127189;27;20867;-59
2023/12/23 13:04:12;;;;;;;0.40;0.10;;;10.60;1.00;;;;;;5133292;27;20426;-59
2023/12/23 13:06:40;;;;;;;0.30;0.10;;;10.50;1.00;;;;;;5130898;27;20423;-60